Ocean Celebrity — HOSZ — position and weather

sailwx.info

Track history (hours):
 
Tides and Currents Weather Stations Pressure Air Temp Water Temp Dewpoint Dewpoint Depression Visibility Wind Speed Wind Dir Waves Ship Positions

Ocean Celebrity

Last reported at 2018-Jan-12 05:21 UTC. Time now 2018-Feb-20 00:18 UTC.
Position N 23°48' E 119°52'.
Warning: this ship's position is 38 days out of date.

Length 289 m; draft 8.2 m.

Type: Cargo ship. MMSI: 356712000.

Date/timePositionNaut miles runAvg speedWind from/ knotsBaromVisibWave heightAir tempDewpointWater temp
2018-Jan-12 05:21N 23°48' E 119°52'3 6.6
2018-Jan-12 04:51N 23°45' E 119°51'2 6.8
2018-Jan-12 04:30N 23°43' E 119°51'3 6.7
2018-Jan-12 04:00N 23°39' E 119°51'3 6.8
2018-Jan-12 03:30N 23°36' E 119°51'3 6.1
2018-Jan-12 03:00N 23°33' E 119°51'3 5.5
2018-Jan-12 02:31N 23°30' E 119°51'3 5.6
2018-Jan-12 01:59N 23°27' E 119°51'3 5.9
2018-Jan-12 01:30N 23°24' E 119°51'3 6.4
2018-Jan-12 00:59N 23°21' E 119°50'4 7.0
2018-Jan-12 00:28N 23°17' E 119°50'4 7.4
2018-Jan-11 23:59N 23°14' E 119°50'4 8.6
2018-Jan-11 23:29N 23°10' E 119°50'3 4.1
2018-Jan-11 22:50N 23°07' E 119°51'3 8.0
2018-Jan-11 22:29N 23°04' E 119°51'510.1
2018-Jan-11 22:00N 22°60' E 119°51'5 9.8
2018-Jan-11 21:30N 22°55' E 119°50'5 9.3
2018-Jan-11 21:00N 22°50' E 119°49'4 9.1
2018-Jan-11 20:30N 22°46' E 119°48'4 8.7
2018-Jan-11 20:00N 22°42' E 119°47'4 8.5
2018-Jan-11 19:30N 22°37' E 119°46'4 8.0
2018-Jan-11 18:56N 22°33' E 119°45'5 8.7
2018-Jan-11 18:20N 22°32' E 119°39'3 8.1
2018-Jan-11 17:58N 22°32' E 119°36'  
Track history (hours):
 
Tides and Currents Weather Stations Pressure Air Temp Water Temp Dewpoint Dewpoint Depression Visibility Wind Speed Wind Dir Waves Ship Positions

Ocean Celebrity

Last reported at 2018-Jan-12 05:21 UTC. Time now 2018-Feb-20 00:18 UTC.
Position N 23°48' E 119°52'.
Warning: this ship's position is 38 days out of date.

Length 289 m; draft 8.2 m.

Type: Cargo ship. MMSI: 356712000.

Date/timePositionNaut miles runAvg speedWind from/ knotsBaromVisibWave heightAir tempDewpointWater temp
2018-Jan-12 05:21N 23°48' E 119°52'3 6.6
2018-Jan-12 04:51N 23°45' E 119°51'2 6.8
2018-Jan-12 04:30N 23°43' E 119°51'3 6.7
2018-Jan-12 04:00N 23°39' E 119°51'3 6.8
2018-Jan-12 03:30N 23°36' E 119°51'3 6.1
2018-Jan-12 03:00N 23°33' E 119°51'3 5.5
2018-Jan-12 02:31N 23°30' E 119°51'3 5.6
2018-Jan-12 01:59N 23°27' E 119°51'3 5.9
2018-Jan-12 01:30N 23°24' E 119°51'3 6.4
2018-Jan-12 00:59N 23°21' E 119°50'4 7.0
2018-Jan-12 00:28N 23°17' E 119°50'4 7.4
2018-Jan-11 23:59N 23°14' E 119°50'4 8.6
2018-Jan-11 23:29N 23°10' E 119°50'3 4.1
2018-Jan-11 22:50N 23°07' E 119°51'3 8.0
2018-Jan-11 22:29N 23°04' E 119°51'510.1
2018-Jan-11 22:00N 22°60' E 119°51'5 9.8
2018-Jan-11 21:30N 22°55' E 119°50'5 9.3
2018-Jan-11 21:00N 22°50' E 119°49'4 9.1
2018-Jan-11 20:30N 22°46' E 119°48'4 8.7
2018-Jan-11 20:00N 22°42' E 119°47'4 8.5
2018-Jan-11 19:30N 22°37' E 119°46'4 8.0
2018-Jan-11 18:56N 22°33' E 119°45'5 8.7
2018-Jan-11 18:20N 22°32' E 119°39'3 8.1
2018-Jan-11 17:58N 22°32' E 119°36'  

Dump ship's entire track history